Wind EuroAirport

Messzeit Windrichtung Windgeschwindigkeit [Knoten] Rückenwind Nordpiste [Knoten] METAR
2019-02-20 18:00 O 100° 2 - LFSB 201700Z 10002KT CAVOK 12/05 Q1024 NOSIG
2019-02-20 17:30 - 2 - LFSB 201630Z VRB02KT 9999 FEW053 BKN260 12/05 Q1024 NOSIG
2019-02-20 17:00 - 3 - LFSB 201600Z VRB03KT 9999 FEW050 BKN260 13/05 Q1024 NOSIG
2019-02-20 16:30 - 2 - LFSB 201530Z VRB02KT 9999 FEW046 BKN260 14/05 Q1024 NOSIG
2019-02-20 16:00 NW 330°
(310°–10°)
4 3–4 LFSB 201500Z 33004KT 310V010 9999 FEW046 BKN260 14/05 Q1024 NOSIG
2019-02-20 15:00 W 290°
(260°–330°)
4 1–4 LFSB 201400Z 29004KT 260V330 9999 FEW043 BKN260 14/05 Q1024 NOSIG
2019-02-20 14:30 W 290°
(240°–10°)
4 0–4 LFSB 201330Z 29004KT 240V010 9999 FEW043 BKN260 14/05 Q1024 NOSIG
2019-02-20 14:00 - 3 - LFSB 201300Z VRB03KT 9999 FEW040 BKN260 14/05 Q1024 NOSIG
2019-02-20 13:30 - 2 - LFSB 201230Z VRB02KT 9999 FEW040 BKN260 14/05 Q1024 NOSIG
2019-02-20 13:00 - 2 - LFSB 201200Z VRB02KT 9999 FEW036 BKN260 13/05 Q1025 NOSIG
2019-02-20 12:30 - 1 - LFSB 201130Z VRB01KT 9999 FEW033 SCT260 12/05 Q1025 NOSIG
2019-02-20 12:00 - 2 - LFSB 201100Z VRB02KT 9999 FEW028 11/04 Q1025 NOSIG
2019-02-20 11:30 SO 130°
(30°–180°)
3 0–2 LFSB 201030Z 13003KT 030V180 9999 FEW020 10/04 Q1025 NOSIG
2019-02-20 11:00 SO 140°
(90°–170°)
4 - LFSB 201000Z 14004KT 090V170 9999 FEW020 09/04 Q1024 NOSIG
2019-02-20 10:00 S 160° 5 - LFSB 200900Z 16005KT CAVOK 06/03 Q1024 NOSIG
2019-02-20 09:30 S 180° 5 - LFSB 200830Z 18005KT 8000 NSC 04/02 Q1024 NOSIG
2019-02-20 09:00 S 180°
(140°–200°)
4 - LFSB 200800Z 18004KT 140V200 7000 NSC 02/02 Q1024 NOSIG
2019-02-20 08:30 S 180° 2 - LFSB 200730Z 18002KT 9999 3500N BR NSC 00/00 Q1024 NOSIG
2019-02-20 08:00 S 180° 3 - LFSB 200700Z 18003KT 9999 3500N BR NSC M00/M00 Q1024 NOSIG
2019-02-20 07:30 S 200° 3 - LFSB 200630Z 20003KT 8000 3500W BR NSC M00/M00 Q1023 NOSIG
2019-02-20 07:00 S 170° 3 - LFSB 200600Z 17003KT 7000 3000W BR NSC M00/M01 Q1023 NOSIG
2019-02-20 06:30 SW 210° 2 - LFSB 200530Z 21002KT 7000 3000W BR NSC M00/M01 Q1023 NOSIG
2019-02-20 06:00 - 0 - LFSB 200500Z 00000KT 7000 2000W BR FEW001 M01/M01 Q1023 NOSIG
2019-02-20 05:30 - 0 - LFSB 200430Z 00000KT 6000 2500W BR FEW001 M00/M01 Q1023 NOSIG
2019-02-20 05:00 S 160° 3 - LFSB 200400Z 16003KT 6000 2500W BR FEW013 M00/M01 Q1023 NOSIG
2019-02-20 04:30 SO 150° 1 - LFSB 200330Z 15001KT 4000 0500S R15/P2000 R33/0900D BCFG FEW011 M01/M02 Q1023 NOSIG
2019-02-20 04:00 - 0 - LFSB 200300Z AUTO 00000KT 3300 R15/1300U BR NSC M00/M01 Q1023 NOSIG
2019-02-20 03:30 SW 210° 2 - LFSB 200230Z AUTO 21002KT 4500 BR NSC M00/M00 Q1023 NOSIG
2019-02-20 03:00 SW 220° 2 - LFSB 200200Z AUTO 22002KT 4700 BR NSC 01/00 Q1023 NOSIG
2019-02-20 02:30 - 1 - LFSB 200130Z AUTO VRB01KT 4100 BR FEW020 00/M00 Q1023 NOSIG
2019-02-20 02:00 S 170° 2 - LFSB 200100Z AUTO 17002KT 4600 0800 R15/P2000 R33/P2000 BCFG NSC 00/M00 Q1023 NOSIG
2019-02-20 01:30 - 0 - LFSB 200030Z AUTO 00000KT 5000 BR NSC 01/00 Q1023 NOSIG
2019-02-20 01:00 W 270° 3 1 LFSB 200000Z AUTO 27003KT 5000 BR NSC 01/M00 Q1023 NOSIG
2019-02-20 00:30 - 0 - LFSB 192330Z AUTO 00000KT 6000 NSC 02/01 Q1023 TEMPO 4000 BR
2019-02-20 00:00 - 1 - LFSB 192300Z VRB01KT CAVOK 02/02 Q1023 NOSIG
2019-02-19 23:30 - 0 - LFSB 192230Z 00000KT CAVOK 03/02 Q1023 NOSIG
2019-02-19 23:00 - 2 - LFSB 192200Z VRB02KT CAVOK 03/02 Q1023 NOSIG
2019-02-19 22:30 - 2 - LFSB 192130Z VRB02KT CAVOK 04/02 Q1023 NOSIG
2019-02-19 22:00 - 2 - LFSB 192100Z VRB02KT CAVOK 05/03 Q1023 NOSIG
2019-02-19 21:30 W 270° 3 1 LFSB 192030Z 27003KT CAVOK 05/03 Q1022 NOSIG
2019-02-19 21:00 W 280° 4 2 LFSB 192000Z 28004KT CAVOK 06/03 Q1022 NOSIG
2019-02-19 20:30 NW 300° 6 5 LFSB 191930Z 30006KT 9999 FEW053 06/03 Q1022 NOSIG
2019-02-19 20:00 NW 310° 7 6 LFSB 191900Z 31007KT 9999 BKN053 08/04 Q1022 NOSIG
2019-02-19 19:30 NW 300° 7 5 LFSB 191830Z 30007KT CAVOK 08/05 Q1022 NOSIG
2019-02-19 19:00 NW 320° 8 8 LFSB 191800Z 32008KT 9999 FEW053 08/04 Q1021 NOSIG